createdAt,value
2019-02-11T00:00:41.560Z,0
2019-02-11T00:03:32.663Z,0
2019-02-11T00:06:30.951Z,0
2019-02-11T00:09:30.491Z,0
2019-02-11T00:12:35.875Z,0
2019-02-11T00:15:30.411Z,0
2019-02-11T00:18:30.868Z,0
2019-02-11T00:21:30.377Z,0
2019-02-11T00:24:30.838Z,0
2019-02-11T00:27:30.182Z,0
2019-02-11T00:30:30.599Z,0
2019-02-11T00:33:31.321Z,0
2019-02-11T00:36:30.864Z,0
2019-02-11T00:39:35.298Z,0
2019-02-11T00:42:31.180Z,0
2019-02-11T00:45:30.704Z,0
2019-02-11T00:48:31.371Z,0
2019-02-11T00:51:31.252Z,0
2019-02-11T00:54:30.712Z,0
2019-02-11T00:57:31.062Z,0
2019-02-11T01:00:30.475Z,0
2019-02-11T01:03:31.077Z,0
2019-02-11T01:06:30.414Z,0
2019-02-11T01:09:36.221Z,0
2019-02-11T01:12:30.958Z,0
2019-02-11T01:15:30.309Z,0
2019-02-11T01:18:30.915Z,0
2019-02-11T01:21:30.364Z,0
2019-02-11T01:24:30.795Z,0
2019-02-11T01:27:30.407Z,0
2019-02-11T01:30:30.952Z,0
2019-02-11T01:33:30.438Z,0
2019-02-11T01:36:31.188Z,0
2019-02-11T01:39:30.675Z,0
2019-02-11T01:42:30.997Z,0
2019-02-11T01:45:30.334Z,0
2019-02-11T01:48:31.080Z,0
2019-02-11T01:51:30.530Z,0
2019-02-11T01:54:30.977Z,0
2019-02-11T01:57:30.422Z,0
2019-02-11T02:00:31.173Z,0
2019-02-11T02:03:30.534Z,0
2019-02-11T02:06:30.856Z,0
2019-02-11T02:09:30.359Z,0
2019-02-11T02:12:30.708Z,0
2019-02-11T02:15:31.113Z,0
2019-02-11T02:18:30.537Z,0
2019-02-11T02:21:30.909Z,0
2019-02-11T02:24:30.273Z,0
2019-02-11T02:27:30.677Z,0
2019-02-11T02:30:30.873Z,0
2019-02-11T02:33:30.534Z,0
2019-02-11T02:36:30.826Z,0
2019-02-11T02:39:30.384Z,0
2019-02-11T02:42:31.156Z,0
2019-02-11T02:45:30.620Z,0
2019-02-11T02:48:30.966Z,0
2019-02-11T02:51:31.882Z,0
2019-02-11T02:54:30.267Z,0
2019-02-11T02:57:30.635Z,0
2019-02-11T03:00:31.136Z,0
2019-02-11T03:03:30.614Z,0
2019-02-11T03:06:30.980Z,0
2019-02-11T03:09:30.394Z,0
2019-02-11T03:12:30.661Z,0
2019-02-11T03:15:31.058Z,0
2019-02-11T03:18:35.718Z,0
2019-02-11T03:21:31.100Z,0
2019-02-11T03:24:30.618Z,0
2019-02-11T03:27:31.102Z,0
2019-02-11T03:30:35.687Z,0
2019-02-11T03:33:31.092Z,0
2019-02-11T03:36:30.617Z,0
2019-02-11T03:39:31.424Z,0
2019-02-11T03:42:30.966Z,0
2019-02-11T03:45:30.562Z,0
2019-02-11T03:48:30.977Z,0
2019-02-11T03:51:30.736Z,0
2019-02-11T03:54:32.903Z,0
2019-02-11T03:57:30.461Z,0
2019-02-11T04:00:30.905Z,0
2019-02-11T04:03:30.144Z,0
2019-02-11T04:06:30.583Z,0
2019-02-11T04:09:31.022Z,0
2019-02-11T04:12:30.394Z,0
2019-02-11T04:15:30.884Z,0
2019-02-11T04:18:30.611Z,0
2019-02-11T04:21:31.079Z,0
2019-02-11T04:24:31.684Z,0
2019-02-11T04:27:31.242Z,0
2019-02-11T04:30:30.735Z,0
2019-02-11T04:33:31.386Z,0
2019-02-11T04:36:30.941Z,0
2019-02-11T04:39:30.490Z,0
2019-02-11T04:42:30.939Z,0
2019-02-11T04:45:30.302Z,0
2019-02-11T04:48:31.122Z,0
2019-02-11T04:51:30.597Z,0
2019-02-11T04:54:31.129Z,0
2019-02-11T04:57:30.607Z,0
2019-02-11T05:00:31.076Z,0
2019-02-11T05:03:30.822Z,0
2019-02-11T05:06:30.581Z,0
2019-02-11T05:09:31.177Z,0
2019-02-11T05:12:30.720Z,0
2019-02-11T05:15:31.199Z,0
2019-02-11T05:18:32.670Z,0
2019-02-11T05:21:31.268Z,0
2019-02-11T05:24:30.773Z,0
2019-02-11T05:27:30.365Z,0
2019-02-11T05:30:30.952Z,0
2019-02-11T05:33:30.654Z,0
2019-02-11T05:36:31.087Z,0
2019-02-11T05:39:30.710Z,0
2019-02-11T05:42:31.025Z,0
2019-02-11T05:45:30.774Z,0
2019-02-11T05:48:31.201Z,0
2019-02-11T05:51:30.904Z,0
2019-02-11T05:54:30.619Z,0
2019-02-11T05:57:31.297Z,0
2019-02-11T06:00:30.923Z,0
2019-02-11T06:03:30.599Z,0
2019-02-11T06:06:31.373Z,0
2019-02-11T06:09:30.895Z,0
2019-02-11T06:12:31.426Z,0
2019-02-11T06:15:30.928Z,1
2019-02-11T06:18:30.447Z,1
2019-02-11T06:21:30.991Z,2
2019-02-11T06:24:30.538Z,2
2019-02-11T06:27:31.055Z,3
2019-02-11T06:30:30.738Z,6
2019-02-11T06:33:30.305Z,8
2019-02-11T06:36:31.005Z,10
2019-02-11T06:39:30.463Z,21
2019-02-11T06:42:31.125Z,22
2019-02-11T06:45:30.676Z,48
2019-02-11T06:48:31.225Z,66
2019-02-11T06:51:30.863Z,85
2019-02-11T06:54:30.529Z,140
2019-02-11T06:57:31.078Z,182
2019-02-11T07:00:30.639Z,228
2019-02-11T07:03:31.295Z,252
2019-02-11T07:06:32.501Z,190
2019-02-11T07:09:35.967Z,213
2019-02-11T07:12:30.419Z,317
2019-02-11T07:15:37.940Z,413
2019-02-11T07:18:30.706Z,566
2019-02-11T07:21:31.371Z,627
2019-02-11T07:24:31.098Z,707
2019-02-11T07:27:30.642Z,956
2019-02-11T07:30:31.141Z,942
2019-02-11T07:33:30.630Z,1232
2019-02-11T07:36:31.235Z,1359
2019-02-11T07:39:30.886Z,1529
2019-02-11T07:42:37.444Z,1698
2019-02-11T07:45:51.714Z,1761
2019-02-11T07:48:32.015Z,1924
2019-02-11T07:51:30.543Z,1917
2019-02-11T07:54:30.925Z,1968
2019-02-11T07:57:30.450Z,2013
2019-02-11T08:00:30.997Z,2158
2019-02-11T08:03:30.624Z,2291
2019-02-11T08:06:31.322Z,2401
2019-02-11T08:09:30.856Z,2376
2019-02-11T08:12:30.672Z,2187
2019-02-11T08:15:38.430Z,1922
2019-02-11T08:18:30.466Z,1431
2019-02-11T08:21:31.048Z,1472
2019-02-11T08:24:30.798Z,1804
2019-02-11T08:27:30.266Z,1481
2019-02-11T08:30:32.030Z,1518
2019-02-11T08:33:30.566Z,1491
2019-02-11T08:36:31.087Z,2072
2019-02-11T08:39:30.746Z,2213
2019-02-11T08:42:36.192Z,2921
2019-02-11T08:45:30.838Z,3148
2019-02-11T08:48:30.504Z,3308
2019-02-11T08:51:30.946Z,3087
2019-02-11T08:54:30.368Z,5052
2019-02-11T08:57:31.235Z,5022
2019-02-11T09:00:30.898Z,3496
2019-02-11T09:03:30.414Z,2640
2019-02-11T09:06:30.941Z,3711
2019-02-11T09:09:30.594Z,3377
2019-02-11T09:12:31.244Z,3114
2019-02-11T09:15:30.838Z,2412
2019-02-11T09:18:30.394Z,1956
2019-02-11T09:21:31.160Z,2267
2019-02-11T09:24:30.786Z,3976
2019-02-11T09:27:30.343Z,5514
2019-02-11T09:30:36.032Z,5945
2019-02-11T09:33:30.736Z,4859
2019-02-11T09:36:31.522Z,5681
2019-02-11T09:39:30.908Z,5339
2019-02-11T09:42:30.343Z,6614
2019-02-11T09:45:31.057Z,10558
2019-02-11T09:48:30.571Z,6675
2019-02-11T09:51:32.018Z,5549
2019-02-11T09:54:30.581Z,7256
2019-02-11T09:57:31.286Z,7320
2019-02-11T10:00:31.440Z,9368
2019-02-11T10:03:31.053Z,17790
2019-02-11T10:06:30.584Z,30081
2019-02-11T10:09:31.115Z,7596
2019-02-11T10:12:37.069Z,6162
2019-02-11T10:15:30.676Z,4817
2019-02-11T10:18:31.113Z,16647
2019-02-11T10:21:30.779Z,54612
2019-02-11T10:24:30.407Z,20397
2019-02-11T10:27:30.956Z,18225
2019-02-11T10:30:30.539Z,10233
2019-02-11T10:33:31.164Z,54612
2019-02-11T10:36:30.615Z,15773
2019-02-11T10:39:31.084Z,13631
2019-02-11T10:42:30.597Z,7478
2019-02-11T10:45:39.144Z,8968
2019-02-11T10:48:30.679Z,6238
2019-02-11T10:51:31.133Z,5109
2019-02-11T10:54:30.655Z,4944
2019-02-11T10:57:31.286Z,4743
2019-02-11T11:00:31.297Z,3451
2019-02-11T11:03:30.949Z,3548
2019-02-11T11:06:35.526Z,3712
2019-02-11T11:09:31.405Z,2911
2019-02-11T11:12:31.052Z,5162
2019-02-11T11:15:31.484Z,5479
2019-02-11T11:18:31.118Z,7409
2019-02-11T11:21:30.876Z,7245
2019-02-11T11:24:30.653Z,6832
2019-02-11T11:27:31.266Z,8945
2019-02-11T11:30:30.916Z,9521
2019-02-11T11:33:30.619Z,11150
2019-02-11T11:36:31.037Z,11399
2019-02-11T11:39:32.221Z,10037
2019-02-11T11:42:30.874Z,10133
2019-02-11T11:45:30.461Z,9959
2019-02-11T11:48:30.982Z,9545
2019-02-11T11:51:30.458Z,9307
2019-02-11T11:54:31.039Z,8995
2019-02-11T11:57:30.638Z,8767
2019-02-11T12:00:31.954Z,8855
2019-02-11T12:03:30.499Z,8831
2019-02-11T12:06:31.081Z,8968
2019-02-11T12:09:30.739Z,8918
2019-02-11T12:12:31.478Z,8718
2019-02-11T12:15:31.377Z,8848
2019-02-11T12:18:31.013Z,9901
2019-02-11T12:21:30.702Z,11847
2019-02-11T12:24:31.747Z,10846
2019-02-11T12:27:31.299Z,9922
2019-02-11T12:30:30.983Z,9688
2019-02-11T12:33:30.514Z,9041
2019-02-11T12:36:31.266Z,9188
2019-02-11T12:39:31.010Z,9090
2019-02-11T12:42:30.514Z,9259
2019-02-11T12:45:31.187Z,10214
2019-02-11T12:48:30.606Z,10514
2019-02-11T12:51:31.281Z,9962
2019-02-11T12:54:30.888Z,9276
2019-02-11T12:57:30.591Z,8023
2019-02-11T13:00:33.386Z,7782
2019-02-11T13:03:30.886Z,8179
2019-02-11T13:06:30.699Z,7664
2019-02-11T13:09:31.426Z,8662
2019-02-11T13:12:31.111Z,12332
2019-02-11T13:16:05.100Z,9224
2019-02-11T13:18:31.819Z,9788
2019-02-11T13:21:30.824Z,7663
2019-02-11T13:24:30.405Z,5038
2019-02-11T13:27:31.113Z,5538
2019-02-11T13:30:30.782Z,7424
2019-02-11T13:33:31.279Z,6870
2019-02-11T13:36:30.841Z,7921
2019-02-11T13:39:30.401Z,7061
2019-02-11T13:42:30.964Z,6236
2019-02-11T13:45:30.943Z,6887
2019-02-11T13:48:33.855Z,6719
2019-02-11T13:51:31.044Z,8632
2019-02-11T13:54:30.698Z,8142
2019-02-11T13:57:31.529Z,7829
2019-02-11T14:00:35.707Z,6400
2019-02-11T14:03:36.274Z,5292
2019-02-11T14:06:31.041Z,4755
2019-02-11T14:09:30.658Z,4476
2019-02-11T14:12:31.126Z,2838
2019-02-11T14:15:35.988Z,4180
2019-02-11T14:18:31.751Z,5007
2019-02-11T14:21:31.417Z,4815
2019-02-11T14:24:31.155Z,4741
2019-02-11T14:27:31.048Z,4598
2019-02-11T14:30:30.694Z,4362
2019-02-11T14:33:31.454Z,3778
2019-02-11T14:36:31.131Z,3224
2019-02-11T14:39:30.922Z,3051
2019-02-11T14:42:31.255Z,3037
2019-02-11T14:45:31.219Z,3202
2019-02-11T14:48:44.589Z,2532
2019-02-11T14:51:31.438Z,2268
2019-02-11T14:54:31.013Z,3144
2019-02-11T14:57:30.789Z,2734
2019-02-11T15:00:30.464Z,1731
2019-02-11T15:03:30.977Z,1510
2019-02-11T15:06:30.542Z,1709
2019-02-11T15:09:31.085Z,2048
2019-02-11T15:12:30.666Z,1758
2019-02-11T15:15:31.217Z,1099
2019-02-11T15:18:36.824Z,1025
2019-02-11T15:21:30.694Z,1364
2019-02-11T15:24:31.244Z,866
2019-02-11T15:27:32.925Z,809
2019-02-11T15:30:30.499Z,948
2019-02-11T15:33:31.042Z,811
2019-02-11T15:36:30.695Z,1173
2019-02-11T15:39:31.262Z,679
2019-02-11T15:42:30.832Z,785
2019-02-11T15:45:30.653Z,914
2019-02-11T15:51:31.073Z,543
2019-02-11T15:54:30.854Z,408
2019-02-11T15:57:30.528Z,286
2019-02-11T16:00:30.996Z,242
2019-02-11T16:03:30.588Z,227
2019-02-11T16:06:37.949Z,198
2019-02-11T16:09:30.818Z,196
2019-02-11T16:12:30.356Z,133
2019-02-11T16:15:30.947Z,76
2019-02-11T16:18:30.455Z,98
2019-02-11T16:21:30.895Z,104
2019-02-11T16:24:30.472Z,137
2019-02-11T16:27:31.095Z,155
2019-02-11T16:30:30.753Z,102
2019-02-11T16:33:31.408Z,112
2019-02-11T16:36:30.794Z,74
2019-02-11T16:39:30.159Z,54
2019-02-11T16:42:30.621Z,59
2019-02-11T16:45:31.136Z,52
2019-02-11T16:48:30.548Z,35
2019-02-11T16:51:31.038Z,21
2019-02-11T16:54:30.540Z,12
2019-02-11T16:57:31.001Z,6
2019-02-11T17:00:30.523Z,3
2019-02-11T17:03:30.932Z,2
2019-02-11T17:06:30.469Z,2
2019-02-11T17:09:31.017Z,1
2019-02-11T17:12:30.499Z,0
2019-02-11T17:15:30.886Z,0
2019-02-11T17:18:30.444Z,0
2019-02-11T17:21:30.955Z,0
2019-02-11T17:24:30.372Z,0
2019-02-11T17:27:30.960Z,0
2019-02-11T17:30:31.159Z,0
2019-02-11T17:33:30.646Z,0
2019-02-11T17:36:31.060Z,0
2019-02-11T17:39:30.698Z,0
2019-02-11T17:42:31.091Z,0
2019-02-11T17:45:30.892Z,0
2019-02-11T17:48:30.720Z,0
2019-02-11T17:51:31.165Z,0
2019-02-11T17:54:30.495Z,0
2019-02-11T17:57:30.991Z,0
2019-02-11T18:00:37.005Z,0
2019-02-11T18:03:30.501Z,0
2019-02-11T18:06:30.886Z,0
2019-02-11T18:09:30.476Z,0
2019-02-11T18:12:31.063Z,0
2019-02-11T18:15:30.517Z,0
2019-02-11T18:18:31.250Z,0
2019-02-11T18:21:32.740Z,0
2019-02-11T18:24:30.511Z,0
2019-02-11T18:27:30.957Z,0
2019-02-11T18:30:30.442Z,0
2019-02-11T18:33:30.984Z,0
2019-02-11T18:36:30.399Z,0
2019-02-11T18:39:30.950Z,0
2019-02-11T18:42:30.451Z,0
2019-02-11T18:45:31.009Z,0
2019-02-11T18:48:30.491Z,0
2019-02-11T18:51:31.048Z,0
2019-02-11T18:54:30.512Z,0
2019-02-11T18:57:30.958Z,0
2019-02-11T19:00:30.444Z,0
2019-02-11T19:03:30.933Z,0
2019-02-11T19:06:30.384Z,0
2019-02-11T19:09:30.887Z,0
2019-02-11T19:12:30.149Z,0
2019-02-11T19:15:30.875Z,0
2019-02-11T19:18:30.440Z,0
2019-02-11T19:21:30.863Z,0
2019-02-11T19:24:30.397Z,0
2019-02-11T19:27:30.905Z,0
2019-02-11T19:30:30.313Z,0
2019-02-11T19:33:30.894Z,0
2019-02-11T19:36:30.902Z,0
2019-02-11T19:39:30.410Z,0
2019-02-11T19:42:30.933Z,0
2019-02-11T19:45:30.465Z,0
2019-02-11T19:48:31.043Z,0
2019-02-11T19:51:30.551Z,0
2019-02-11T19:54:31.095Z,0
2019-02-11T19:57:30.721Z,0
2019-02-11T20:00:31.906Z,0
2019-02-11T20:03:30.595Z,0
2019-02-11T20:06:33.065Z,0
2019-02-11T20:09:35.434Z,0
2019-02-11T20:12:36.042Z,0
2019-02-11T20:15:30.642Z,0
2019-02-11T20:18:31.207Z,0
2019-02-11T20:21:30.663Z,0
2019-02-11T20:24:31.152Z,0
2019-02-11T20:27:30.731Z,0
2019-02-11T20:30:31.534Z,0
2019-02-11T20:33:31.037Z,0
2019-02-11T20:36:30.604Z,0
2019-02-11T20:39:31.184Z,0
2019-02-11T20:42:30.545Z,0
2019-02-11T20:45:31.577Z,0
2019-02-11T20:48:30.971Z,0
2019-02-11T20:51:30.510Z,0
2019-02-11T20:54:31.284Z,0
2019-02-11T20:57:30.896Z,0
2019-02-11T21:00:30.708Z,0
2019-02-11T21:03:31.133Z,0
2019-02-11T21:06:30.778Z,0
2019-02-11T21:09:30.538Z,0
2019-02-11T21:12:31.112Z,0
2019-02-11T21:15:30.718Z,0
2019-02-11T21:18:30.386Z,0
2019-02-11T21:21:31.112Z,0
2019-02-11T21:24:30.646Z,0
2019-02-11T21:27:31.267Z,0
2019-02-11T21:30:30.896Z,0
2019-02-11T21:33:30.504Z,0
2019-02-11T21:36:31.120Z,0
2019-02-11T21:39:30.603Z,0
2019-02-11T21:42:31.094Z,0
2019-02-11T21:45:30.774Z,0
2019-02-11T21:48:30.335Z,0
2019-02-11T21:51:31.016Z,0
2019-02-11T21:54:30.773Z,0
2019-02-11T21:57:31.481Z,0
2019-02-11T22:00:31.030Z,0
2019-02-11T22:03:32.825Z,0
2019-02-11T22:06:30.276Z,0
2019-02-11T22:09:30.943Z,0
2019-02-11T22:12:30.554Z,0
2019-02-11T22:15:31.512Z,0
2019-02-11T22:18:31.243Z,0
2019-02-11T22:21:30.991Z,0
2019-02-11T22:24:30.772Z,0
2019-02-11T22:27:31.358Z,0
2019-02-11T22:30:30.976Z,0
2019-02-11T22:33:30.559Z,0
2019-02-11T22:36:31.181Z,0
2019-02-11T22:39:30.821Z,0
2019-02-11T22:42:31.141Z,0
2019-02-11T22:45:30.793Z,0
2019-02-11T22:48:30.383Z,0
2019-02-11T22:51:30.927Z,0
2019-02-11T22:54:30.462Z,0
2019-02-11T22:57:31.159Z,0
2019-02-11T23:00:40.007Z,0
2019-02-11T23:03:30.633Z,0
2019-02-11T23:06:31.146Z,0
2019-02-11T23:09:30.938Z,0
2019-02-11T23:12:30.560Z,0
2019-02-11T23:15:31.095Z,0
2019-02-11T23:18:30.794Z,0
2019-02-11T23:21:30.422Z,0
2019-02-11T23:24:31.053Z,0
2019-02-11T23:27:30.613Z,0
2019-02-11T23:30:31.127Z,0
2019-02-11T23:33:30.647Z,0
2019-02-11T23:36:31.130Z,0
2019-02-11T23:39:30.732Z,0
2019-02-11T23:42:31.355Z,0
2019-02-11T23:45:31.006Z,0
2019-02-11T23:48:30.557Z,0
2019-02-11T23:51:31.070Z,0
2019-02-11T23:54:30.533Z,0
2019-02-11T23:57:31.216Z,0
